Aérodrome :
LOGIN :

S'inscrire | Disclaimer

   EN    FR    IT 

 










Légende :    VFR   VFR Marginal   IFR   IFR Intensif   IFR Très Intensif
Visi : 
Plafond : 
>= 8 km
>= 3000ft
5 à 8 km
1000 à 3000 ft
1500m à 5 km
500 à 1000 ft
800 à 1500m
200 à 500 ft
< 800m
< 200 ft
Symboles :   Orages  Brouillard  Fortes neiges  Fortes précipitations  Vent > 20 kt
SIGMETs :   Divers  Orages  Givrage  Turbulence  Onde Orograph.  Cendres Volcan.






- Altitude de l'aérodrome : 75 ft
- Code IATA : MRH


EGYM - RAF Marham

DERNIER METAR :
  • 231020Z 22013KT 9999 FEW012 SCT018 BKN200 14/11 Q1006 TEMPO FEW020 RMK WHT TEMPO BLU

METARs EXPIRÉS :
  • 230950Z AUTO 22012KT 9999 BKN012/// SCT023/// 14/12 Q1006
  • 230934Z 21011KT 9999 FEW020 14/12 Q1006 TEMPO SCT020 RMK BLU TEMPO WHT
  • 230850Z 21015KT 9999 FEW012 13/12 Q1006 TEMPO SCT015 RMK BLU TEMPO WHT
  • 230820Z 20012KT 9000 HZ FEW009 SCT019 12/12 Q1006 TEMPO FEW010 BKN025 RMK WHT TEMPO BLU
  • 230750Z 19013KT 8000 VCSH FEW006 SCT009 12/12 Q1006 RERA REDZ BECMG FEW 010 BKN025 RMK GRN BECMG BLU

TAF AMD TAF EGYM
Valide du 23 à 09h jusqu'au 23 à 18h UTC


230742Z 2309/2318 20014KT 9999 FEW010 BKN025
TEMPO 2309/2318 BKN015
PROB40
TEMPO 2309/2312 SCT012
PROB30
TEMPO 2316/2318 SCT010 BKN015



MET'MAP, la Météo Aéronautique d'un coup d'oeil ! - Copyright ORBIFLY Décembre 2007 - Disclaimer

ORBIFLY MET'MAP TEAM :

Programmation & Développement : Alexandra Zaïnal
Sur une idée originale de : Baudouin d'Aumeries
Assistance à la programmation : Marc-Olivier Méhu
Soutien technique & logistique : Manuel Goepfert

Contact : metmap@orbifly.com




SOURCES & CREDITS :

   NOAA